createdAt,value
2018-09-14T00:00:25.392Z,0.00
2018-09-14T00:01:00.949Z,0.00
2018-09-14T00:01:36.487Z,0.00
2018-09-14T00:02:11.812Z,0.00
2018-09-14T00:02:47.216Z,0.00
2018-09-14T00:03:22.439Z,0.00
2018-09-14T00:03:57.811Z,0.00
2018-09-14T00:04:33.143Z,0.00
2018-09-14T00:05:08.542Z,0.00
2018-09-14T00:05:44.041Z,0.00
2018-09-14T00:06:19.342Z,0.00
2018-09-14T00:06:54.518Z,0.00
2018-09-14T00:07:29.825Z,0.00
2018-09-14T00:08:05.096Z,0.00
2018-09-14T00:08:40.305Z,0.00
2018-09-14T00:09:15.573Z,0.00
2018-09-14T00:09:50.960Z,0.00
2018-09-14T00:10:26.235Z,0.00
2018-09-14T00:11:01.746Z,0.00
2018-09-14T00:11:37.230Z,0.00
2018-09-14T00:12:12.635Z,0.00
2018-09-14T00:12:47.732Z,0.00
2018-09-14T00:13:22.828Z,0.00
2018-09-14T00:13:58.090Z,0.00
2018-09-14T00:14:33.296Z,0.00
2018-09-14T00:15:08.617Z,0.00
2018-09-14T00:15:43.826Z,0.00
2018-09-14T00:16:19.176Z,0.00
2018-09-14T00:16:54.487Z,0.00
2018-09-14T00:17:29.656Z,0.00
2018-09-14T00:18:04.740Z,0.00
2018-09-14T00:18:40.318Z,0.00
2018-09-14T00:19:15.736Z,0.00
2018-09-14T00:19:51.333Z,0.00
2018-09-14T00:20:26.494Z,0.00
2018-09-14T00:21:02.058Z,0.00
2018-09-14T00:21:37.470Z,0.00
2018-09-14T00:22:12.638Z,0.00
2018-09-14T00:22:48.044Z,0.00
2018-09-14T00:23:23.213Z,0.00
2018-09-14T00:23:58.310Z,0.00
2018-09-14T00:24:33.720Z,0.00
2018-09-14T00:25:09.308Z,0.00
2018-09-14T00:25:44.522Z,0.00
2018-09-14T00:26:19.801Z,0.00
2018-09-14T00:26:55.254Z,0.00
2018-09-14T00:27:30.601Z,0.00
2018-09-14T00:28:06.325Z,0.00
2018-09-14T00:28:41.590Z,0.00
2018-09-14T00:29:16.794Z,0.00
2018-09-14T00:29:52.096Z,0.00
2018-09-14T00:30:27.554Z,0.00
2018-09-14T00:31:02.703Z,0.00
2018-09-14T00:31:37.972Z,0.00
2018-09-14T00:32:13.492Z,0.00
2018-09-14T00:32:51.921Z,0.00
2018-09-14T00:33:27.255Z,0.00
2018-09-14T00:34:02.826Z,0.00
2018-09-14T00:34:38.258Z,0.00
2018-09-14T00:35:13.412Z,0.00
2018-09-14T00:35:48.742Z,0.00
2018-09-14T00:36:24.148Z,0.00
2018-09-14T00:36:59.523Z,0.00
2018-09-14T00:37:34.881Z,0.00
2018-09-14T00:38:10.250Z,0.00
2018-09-14T00:38:45.820Z,0.00
2018-09-14T00:39:21.027Z,0.00
2018-09-14T00:39:56.438Z,0.00
2018-09-14T00:40:31.711Z,0.00
2018-09-14T00:41:07.145Z,0.00
2018-09-14T00:41:42.614Z,0.00
2018-09-14T00:42:18.034Z,0.00
2018-09-14T00:42:53.153Z,0.00
2018-09-14T00:43:28.747Z,0.00
2018-09-14T00:44:03.858Z,0.00
2018-09-14T00:44:39.050Z,0.00
2018-09-14T00:45:14.127Z,0.00
2018-09-14T00:45:49.418Z,0.00
2018-09-14T00:46:25.181Z,0.00
2018-09-14T00:47:00.386Z,0.00
2018-09-14T00:47:35.630Z,0.00
2018-09-14T00:48:10.849Z,0.00
2018-09-14T00:48:46.169Z,0.00
2018-09-14T00:49:21.646Z,0.00
2018-09-14T00:49:57.253Z,0.00
2018-09-14T00:50:32.412Z,0.00
2018-09-14T00:51:07.544Z,0.00
2018-09-14T00:51:43.052Z,0.00
2018-09-14T00:52:18.558Z,0.00
2018-09-14T00:52:53.956Z,0.00
2018-09-14T00:53:29.257Z,0.00
2018-09-14T00:54:04.360Z,0.00
2018-09-14T00:54:39.642Z,0.00
2018-09-14T00:55:14.848Z,0.00
2018-09-14T00:55:50.217Z,0.00
2018-09-14T00:56:25.284Z,0.00
2018-09-14T00:57:00.539Z,0.00
2018-09-14T00:57:35.737Z,0.00
2018-09-14T00:58:10.912Z,0.00
2018-09-14T00:58:46.218Z,0.00
2018-09-14T00:59:21.482Z,0.00
2018-09-14T00:59:56.894Z,0.00
2018-09-14T01:00:32.297Z,0.00
2018-09-14T01:01:07.421Z,0.00
2018-09-14T01:01:42.925Z,0.00
2018-09-14T01:02:18.165Z,0.00
2018-09-14T01:02:53.446Z,0.00
2018-09-14T01:03:28.990Z,0.00
2018-09-14T01:04:04.757Z,0.00
2018-09-14T01:04:40.250Z,0.00
2018-09-14T01:05:15.775Z,0.00
2018-09-14T01:05:50.965Z,0.00
2018-09-14T01:06:26.391Z,0.00
2018-09-14T01:07:01.747Z,0.00
2018-09-14T01:07:37.114Z,0.00
2018-09-14T01:08:12.287Z,0.00
2018-09-14T01:08:47.697Z,0.00
2018-09-14T01:09:22.714Z,0.00
2018-09-14T01:09:58.311Z,0.00
2018-09-14T01:10:33.509Z,0.00
2018-09-14T01:11:09.083Z,0.00
2018-09-14T01:11:44.420Z,0.00
2018-09-14T01:12:19.804Z,0.00
2018-09-14T01:12:55.285Z,0.00
2018-09-14T01:13:30.775Z,0.00
2018-09-14T01:14:06.096Z,0.00
2018-09-14T01:14:41.570Z,0.00
2018-09-14T01:15:17.029Z,0.00
2018-09-14T01:15:52.708Z,0.00
2018-09-14T01:16:28.246Z,0.00
2018-09-14T01:17:03.619Z,0.00
2018-09-14T01:17:39.076Z,0.00
2018-09-14T01:18:14.304Z,0.00
2018-09-14T01:18:49.633Z,0.00
2018-09-14T01:19:24.978Z,0.00
2018-09-14T01:20:00.486Z,0.00
2018-09-14T01:20:36.021Z,0.00
2018-09-14T01:21:11.095Z,0.00
2018-09-14T01:21:46.663Z,0.00
2018-09-14T01:22:22.063Z,0.00
2018-09-14T01:22:57.347Z,0.00
2018-09-14T01:23:32.753Z,0.00
2018-09-14T01:24:08.213Z,0.00
2018-09-14T01:24:43.810Z,0.00
2018-09-14T01:25:19.397Z,0.00
2018-09-14T01:25:54.689Z,0.00
2018-09-14T01:26:30.121Z,0.00
2018-09-14T01:27:05.455Z,0.00
2018-09-14T01:27:40.731Z,0.00
2018-09-14T01:28:16.064Z,0.00
2018-09-14T01:28:51.466Z,0.00
2018-09-14T01:29:26.778Z,0.00
2018-09-14T01:30:01.999Z,0.00
2018-09-14T01:30:37.417Z,0.00
2018-09-14T01:31:12.946Z,0.00
2018-09-14T01:31:48.171Z,0.00
2018-09-14T01:32:23.416Z,0.00
2018-09-14T01:32:58.828Z,0.00
2018-09-14T01:33:34.472Z,0.00
2018-09-14T01:34:09.743Z,0.00
2018-09-14T01:34:44.887Z,0.00
2018-09-14T01:35:20.128Z,0.00
2018-09-14T01:35:55.432Z,0.00
2018-09-14T01:36:30.751Z,0.00
2018-09-14T01:37:06.526Z,0.00
2018-09-14T01:37:41.923Z,0.00
2018-09-14T01:38:17.356Z,0.00
2018-09-14T01:38:52.472Z,0.00
2018-09-14T01:39:27.751Z,0.00
2018-09-14T01:40:03.565Z,0.00
2018-09-14T01:40:39.207Z,0.00
2018-09-14T01:41:14.488Z,0.00
2018-09-14T01:41:49.710Z,0.00
2018-09-14T01:42:25.091Z,0.00
2018-09-14T01:43:00.596Z,0.00
2018-09-14T01:43:35.677Z,0.00
2018-09-14T01:44:11.071Z,0.00
2018-09-14T01:44:46.464Z,0.00
2018-09-14T01:45:21.808Z,0.00
2018-09-14T01:45:57.107Z,0.00
2018-09-14T01:46:32.554Z,0.00
2018-09-14T01:47:07.722Z,0.00
2018-09-14T01:47:42.927Z,0.00
2018-09-14T01:48:18.245Z,0.00
2018-09-14T01:48:53.638Z,0.00
2018-09-14T01:49:28.848Z,0.00
2018-09-14T01:50:04.005Z,0.00
2018-09-14T01:50:39.521Z,0.00
2018-09-14T01:51:14.940Z,0.00
2018-09-14T01:51:50.289Z,0.00
2018-09-14T01:52:25.487Z,0.00
2018-09-14T01:53:01.008Z,0.00
2018-09-14T01:53:36.324Z,0.00
2018-09-14T01:54:11.523Z,0.00
2018-09-14T01:54:46.978Z,0.00
2018-09-14T01:55:22.303Z,0.00
2018-09-14T01:55:57.642Z,0.00
2018-09-14T01:56:32.997Z,0.00
2018-09-14T01:57:08.432Z,0.00
2018-09-14T01:57:43.835Z,0.00
2018-09-14T01:58:19.197Z,0.00
2018-09-14T01:58:54.488Z,0.00
2018-09-14T01:59:29.734Z,0.00
2018-09-14T02:00:05.301Z,0.00
2018-09-14T02:00:40.954Z,0.00
2018-09-14T02:01:16.338Z,0.00
2018-09-14T02:01:51.702Z,0.00
2018-09-14T02:02:27.212Z,0.00
2018-09-14T02:03:02.783Z,0.00
2018-09-14T02:03:38.456Z,0.00
2018-09-14T02:04:13.801Z,0.00
2018-09-14T02:04:49.371Z,0.00
2018-09-14T02:05:24.597Z,0.00
2018-09-14T02:06:00.170Z,0.00
2018-09-14T02:06:35.382Z,0.00
2018-09-14T02:07:10.772Z,0.00
2018-09-14T02:07:46.289Z,0.00
2018-09-14T02:08:21.889Z,0.00
2018-09-14T02:08:57.407Z,0.00
2018-09-14T02:09:32.592Z,0.00
2018-09-14T02:10:07.865Z,0.00
2018-09-14T02:10:43.338Z,0.00
2018-09-14T02:11:18.674Z,0.00
2018-09-14T02:11:54.212Z,0.00
2018-09-14T02:12:29.517Z,0.00
2018-09-14T02:13:04.742Z,0.00
2018-09-14T02:13:40.317Z,0.00
2018-09-14T02:14:15.451Z,0.00
2018-09-14T02:14:50.613Z,0.00
2018-09-14T02:15:25.891Z,0.00
2018-09-14T02:16:01.309Z,0.00
2018-09-14T02:16:36.909Z,0.00
2018-09-14T02:17:12.086Z,0.00
2018-09-14T02:17:47.347Z,0.00
2018-09-14T02:18:22.655Z,0.00
2018-09-14T02:18:57.975Z,0.00
2018-09-14T02:19:33.412Z,0.00
2018-09-14T02:20:09.234Z,0.00
2018-09-14T02:20:44.502Z,0.00
2018-09-14T02:21:19.877Z,0.00
2018-09-14T02:21:55.227Z,0.00
2018-09-14T02:22:30.471Z,0.00
2018-09-14T02:23:05.675Z,0.00
2018-09-14T02:23:41.088Z,0.00
2018-09-14T02:24:16.386Z,0.00
2018-09-14T02:24:51.912Z,0.00
2018-09-14T02:25:27.425Z,0.00
2018-09-14T02:26:02.762Z,0.00
2018-09-14T02:26:38.172Z,0.00
2018-09-14T02:27:13.419Z,0.00
2018-09-14T02:27:48.729Z,0.00
2018-09-14T02:28:23.945Z,0.00
2018-09-14T02:28:59.282Z,0.00
2018-09-14T02:29:34.399Z,0.00
2018-09-14T02:30:09.690Z,0.00
2018-09-14T02:30:45.057Z,0.00
2018-09-14T02:31:20.849Z,0.00
2018-09-14T02:31:55.962Z,0.00
2018-09-14T02:32:31.086Z,0.00
2018-09-14T02:33:06.355Z,0.00
2018-09-14T02:33:41.468Z,0.00
2018-09-14T02:34:16.870Z,0.00
2018-09-14T02:34:52.558Z,0.00
2018-09-14T02:35:28.141Z,0.00
2018-09-14T02:36:03.539Z,0.00
2018-09-14T02:36:38.903Z,0.00
2018-09-14T02:37:14.192Z,0.00
2018-09-14T02:37:49.743Z,0.00
2018-09-14T02:38:25.078Z,0.00
2018-09-14T02:39:00.448Z,0.00
2018-09-14T02:39:35.937Z,0.00
2018-09-14T02:40:11.649Z,0.00
2018-09-14T02:40:47.405Z,0.00
2018-09-14T02:41:22.638Z,0.00
2018-09-14T02:41:57.818Z,0.00
2018-09-14T02:42:32.907Z,0.00
2018-09-14T02:43:08.362Z,0.00
2018-09-14T02:43:43.954Z,0.00
2018-09-14T02:44:19.224Z,0.00
2018-09-14T02:44:54.764Z,0.00
2018-09-14T02:45:30.182Z,0.00
2018-09-14T02:46:05.646Z,0.00
2018-09-14T02:46:41.046Z,0.00
2018-09-14T02:47:16.245Z,0.00
2018-09-14T02:47:51.643Z,0.00
2018-09-14T02:48:27.227Z,0.00
2018-09-14T02:49:02.663Z,0.00
2018-09-14T02:49:38.215Z,0.00
2018-09-14T02:50:13.464Z,0.00
2018-09-14T02:50:48.724Z,0.00
2018-09-14T02:51:24.111Z,0.00
2018-09-14T02:51:59.633Z,0.00
2018-09-14T02:52:35.030Z,0.00
2018-09-14T02:53:10.280Z,0.00
2018-09-14T02:53:45.704Z,0.00
2018-09-14T02:54:20.891Z,0.00
2018-09-14T02:54:56.539Z,0.00
2018-09-14T02:55:31.775Z,0.00
2018-09-14T02:56:07.103Z,0.00
2018-09-14T02:56:42.842Z,0.00
2018-09-14T02:57:18.499Z,0.00
2018-09-14T02:57:53.965Z,0.00
2018-09-14T02:58:29.530Z,0.00
2018-09-14T02:59:05.161Z,0.00
2018-09-14T02:59:40.434Z,0.00
2018-09-14T03:00:15.825Z,0.00
2018-09-14T03:00:51.025Z,0.00
2018-09-14T03:01:26.060Z,0.00
2018-09-14T03:02:01.273Z,0.00
2018-09-14T03:02:36.309Z,0.00
2018-09-14T03:03:11.679Z,0.00
2018-09-14T03:03:47.115Z,0.00
2018-09-14T03:04:22.596Z,0.00
2018-09-14T03:04:58.069Z,0.00
2018-09-14T03:05:33.142Z,0.00
2018-09-14T03:06:08.579Z,0.00
2018-09-14T03:06:44.050Z,0.00
2018-09-14T03:07:19.292Z,0.00
2018-09-14T03:07:54.602Z,0.00
2018-09-14T03:08:30.010Z,0.00
2018-09-14T03:09:05.611Z,0.00
2018-09-14T03:09:41.026Z,0.00
2018-09-14T03:10:16.338Z,0.00
2018-09-14T03:10:51.629Z,0.00
2018-09-14T03:11:26.932Z,0.00
2018-09-14T03:12:02.559Z,0.00
2018-09-14T03:12:38.725Z,0.00
2018-09-14T03:13:13.932Z,0.00
2018-09-14T03:13:49.147Z,0.00
2018-09-14T03:14:24.362Z,0.00
2018-09-14T03:14:59.858Z,0.00
2018-09-14T03:15:35.211Z,0.00
2018-09-14T03:16:10.851Z,0.00
2018-09-14T03:16:46.440Z,0.00
2018-09-14T03:17:21.409Z,0.00
2018-09-14T03:17:56.953Z,0.00
2018-09-14T03:18:32.316Z,0.00
2018-09-14T03:19:07.625Z,0.00
2018-09-14T03:19:43.202Z,0.00
2018-09-14T03:20:18.452Z,0.00
2018-09-14T03:20:53.509Z,0.00
2018-09-14T03:21:28.848Z,0.00
2018-09-14T03:22:04.012Z,0.00
2018-09-14T03:22:39.475Z,0.00
2018-09-14T03:23:14.745Z,0.00
2018-09-14T03:23:50.135Z,0.00
2018-09-14T03:24:25.195Z,0.00
2018-09-14T03:25:00.574Z,0.00
2018-09-14T03:25:36.161Z,0.00
2018-09-14T03:26:11.422Z,0.00
2018-09-14T03:26:46.696Z,0.00
2018-09-14T03:27:22.092Z,0.00
2018-09-14T03:27:57.254Z,0.00
2018-09-14T03:28:32.377Z,0.00
2018-09-14T03:29:07.793Z,0.00
2018-09-14T03:29:42.983Z,0.00
2018-09-14T03:30:18.325Z,0.00
2018-09-14T03:30:53.612Z,0.00
2018-09-14T03:31:28.925Z,0.00
2018-09-14T03:32:04.154Z,0.00
2018-09-14T03:32:39.318Z,0.00
2018-09-14T03:33:14.681Z,0.00
2018-09-14T03:33:50.388Z,0.00
2018-09-14T03:34:25.753Z,0.00
2018-09-14T03:35:00.820Z,0.00
2018-09-14T03:35:36.199Z,0.00
2018-09-14T03:36:11.593Z,0.00
2018-09-14T03:36:46.968Z,0.00
2018-09-14T03:37:22.535Z,0.00
2018-09-14T03:37:58.376Z,0.00
2018-09-14T03:38:33.806Z,0.00
2018-09-14T03:39:09.139Z,0.00
2018-09-14T03:39:44.696Z,0.00
2018-09-14T03:40:20.419Z,0.00
2018-09-14T03:40:55.811Z,0.00
2018-09-14T03:41:31.245Z,0.00
2018-09-14T03:42:06.547Z,0.00
2018-09-14T03:42:41.849Z,0.00
2018-09-14T03:43:17.125Z,0.00
2018-09-14T03:43:52.290Z,0.00
2018-09-14T03:44:27.351Z,0.00
2018-09-14T03:45:02.946Z,0.00
2018-09-14T03:45:38.293Z,0.00
2018-09-14T03:46:13.643Z,0.00
2018-09-14T03:46:49.118Z,0.00
2018-09-14T03:47:24.578Z,0.00
2018-09-14T03:47:59.747Z,0.00
2018-09-14T03:48:35.038Z,0.00
2018-09-14T03:49:10.417Z,0.00
2018-09-14T03:49:45.846Z,0.00
2018-09-14T03:50:21.152Z,0.00
2018-09-14T03:50:56.667Z,0.00
2018-09-14T03:51:31.928Z,0.00
2018-09-14T03:52:07.361Z,0.00
2018-09-14T03:52:42.868Z,0.00
2018-09-14T03:53:18.219Z,0.00
2018-09-14T03:53:53.397Z,0.00
2018-09-14T03:54:28.712Z,0.00
2018-09-14T03:55:03.919Z,0.00
2018-09-14T03:55:39.414Z,0.00
2018-09-14T03:56:15.194Z,0.00
2018-09-14T03:56:50.562Z,0.00
2018-09-14T03:57:25.982Z,0.00
2018-09-14T03:58:01.092Z,0.00
2018-09-14T03:58:36.600Z,0.00
2018-09-14T03:59:12.193Z,0.00
2018-09-14T03:59:47.479Z,0.00
2018-09-14T04:00:22.707Z,0.00
2018-09-14T04:00:58.038Z,0.00
2018-09-14T04:01:33.267Z,0.00
2018-09-14T04:02:08.702Z,0.00
2018-09-14T04:02:44.279Z,0.00
2018-09-14T04:03:19.638Z,0.00
2018-09-14T04:03:55.204Z,0.00
2018-09-14T04:04:30.616Z,0.00
2018-09-14T04:05:06.004Z,0.00
2018-09-14T04:05:41.537Z,0.00
2018-09-14T04:06:16.707Z,0.00
2018-09-14T04:06:51.983Z,0.00
2018-09-14T04:07:27.467Z,0.00
2018-09-14T04:08:02.454Z,0.00
2018-09-14T04:08:37.912Z,0.00
2018-09-14T04:09:13.253Z,0.00
2018-09-14T04:09:48.567Z,0.00
2018-09-14T04:10:23.809Z,0.00
2018-09-14T04:10:58.834Z,0.00
2018-09-14T04:11:34.230Z,0.00
2018-09-14T04:12:09.397Z,0.00
2018-09-14T04:12:45.116Z,0.00
2018-09-14T04:13:20.532Z,0.00
2018-09-14T04:13:55.639Z,0.00
2018-09-14T04:14:30.748Z,0.00
2018-09-14T04:15:06.148Z,0.00
2018-09-14T04:15:41.570Z,0.00
2018-09-14T04:16:16.907Z,0.00
2018-09-14T04:16:52.217Z,0.00
2018-09-14T04:17:27.513Z,0.00
2018-09-14T04:18:02.904Z,0.00
2018-09-14T04:18:38.307Z,0.00
2018-09-14T04:19:13.520Z,0.00
2018-09-14T04:19:48.963Z,0.00
2018-09-14T04:20:24.267Z,0.00
2018-09-14T04:20:59.891Z,0.00
2018-09-14T04:21:35.076Z,0.00
2018-09-14T04:22:10.639Z,0.00
2018-09-14T04:22:46.006Z,0.00
2018-09-14T04:23:21.204Z,0.00
2018-09-14T04:23:56.556Z,0.00
2018-09-14T04:24:31.987Z,0.00
2018-09-14T04:25:07.216Z,0.00
2018-09-14T04:25:42.506Z,0.00
2018-09-14T04:26:18.114Z,0.00
2018-09-14T04:26:53.278Z,0.00
2018-09-14T04:27:28.644Z,0.00
2018-09-14T04:28:04.153Z,0.00
2018-09-14T04:28:39.435Z,0.00
2018-09-14T04:29:14.995Z,0.00
2018-09-14T04:29:50.403Z,0.00
2018-09-14T04:30:25.539Z,0.00
2018-09-14T04:31:00.695Z,0.00
2018-09-14T04:31:35.988Z,0.00
2018-09-14T04:32:11.606Z,0.00
2018-09-14T04:32:47.073Z,0.00
2018-09-14T04:33:22.180Z,0.00
2018-09-14T04:33:57.236Z,0.00
2018-09-14T04:34:32.295Z,0.00
2018-09-14T04:35:07.830Z,0.00
2018-09-14T04:35:42.998Z,0.00
2018-09-14T04:36:18.401Z,0.00
2018-09-14T04:36:53.555Z,0.00
2018-09-14T04:37:28.842Z,0.00
2018-09-14T04:38:04.273Z,0.00
2018-09-14T04:38:39.611Z,0.00
2018-09-14T04:39:15.150Z,0.00
2018-09-14T04:39:50.535Z,0.00
2018-09-14T04:40:25.820Z,0.00
2018-09-14T04:41:01.130Z,0.00
2018-09-14T04:41:36.336Z,0.00
2018-09-14T04:42:11.820Z,0.00
2018-09-14T04:42:47.426Z,0.00
2018-09-14T04:43:22.600Z,0.00
2018-09-14T04:43:57.661Z,0.00
2018-09-14T04:44:32.987Z,0.00
2018-09-14T04:45:08.251Z,0.00
2018-09-14T04:45:43.716Z,0.00
2018-09-14T04:46:18.924Z,0.00
2018-09-14T04:46:54.242Z,0.00
2018-09-14T04:47:29.518Z,0.00
2018-09-14T04:48:04.756Z,0.00
2018-09-14T04:48:40.191Z,0.00
2018-09-14T04:49:15.428Z,0.00
2018-09-14T04:49:50.955Z,0.00
2018-09-14T04:50:26.351Z,0.00
2018-09-14T04:51:01.453Z,0.00
2018-09-14T04:51:36.788Z,0.00
2018-09-14T04:52:12.078Z,0.00
2018-09-14T04:52:47.254Z,0.00
2018-09-14T04:53:22.614Z,0.00
2018-09-14T04:53:58.029Z,0.00
2018-09-14T04:54:33.543Z,0.00
2018-09-14T04:55:08.724Z,0.00
2018-09-14T04:55:44.404Z,0.00
2018-09-14T04:56:19.994Z,0.00
2018-09-14T04:56:55.320Z,0.00
2018-09-14T04:57:30.608Z,0.00
2018-09-14T04:58:05.741Z,0.00
2018-09-14T04:58:41.120Z,0.00
2018-09-14T04:59:16.584Z,0.00
2018-09-14T04:59:51.849Z,0.00
2018-09-14T05:00:27.038Z,0.00
2018-09-14T05:01:02.399Z,0.00
2018-09-14T05:01:37.626Z,0.00
2018-09-14T05:02:13.266Z,0.00
2018-09-14T05:02:48.498Z,0.00
2018-09-14T05:03:23.937Z,0.00
2018-09-14T05:03:59.223Z,0.00
2018-09-14T05:04:34.335Z,0.00
2018-09-14T05:05:09.983Z,0.00
2018-09-14T05:05:45.472Z,0.00
2018-09-14T05:06:21.014Z,0.00
2018-09-14T05:06:56.256Z,0.00
2018-09-14T05:07:31.633Z,0.00
2018-09-14T05:08:07.223Z,0.00
2018-09-14T05:08:42.689Z,0.24
2018-09-14T05:09:18.162Z,0.56
2018-09-14T05:09:53.559Z,0.00
2018-09-14T05:10:28.838Z,0.00
2018-09-14T05:11:04.160Z,0.00
2018-09-14T05:11:39.937Z,0.00
2018-09-14T05:12:15.376Z,0.40
2018-09-14T05:12:50.435Z,0.24
2018-09-14T05:13:25.771Z,0.00
2018-09-14T05:14:00.955Z,0.80
2018-09-14T05:14:36.284Z,0.00
2018-09-14T05:15:11.609Z,0.08
2018-09-14T05:15:46.837Z,0.00
2018-09-14T05:16:22.129Z,0.00
2018-09-14T05:16:57.397Z,0.00
2018-09-14T05:17:32.983Z,0.00
2018-09-14T05:18:08.354Z,0.00
2018-09-14T05:18:43.649Z,0.00
2018-09-14T05:19:19.108Z,0.00
2018-09-14T05:19:54.564Z,0.00
2018-09-14T05:20:29.894Z,0.00
2018-09-14T05:21:05.262Z,0.00
2018-09-14T05:21:40.743Z,0.00
2018-09-14T05:22:15.960Z,0.00
2018-09-14T05:22:51.236Z,0.00
2018-09-14T05:23:26.560Z,0.00
2018-09-14T05:24:01.767Z,0.00
2018-09-14T05:24:37.152Z,0.00
2018-09-14T05:25:12.665Z,0.00
2018-09-14T05:25:47.811Z,0.56
2018-09-14T05:26:23.187Z,0.96
2018-09-14T05:26:58.355Z,0.88
2018-09-14T05:27:33.523Z,0.48
2018-09-14T05:28:09.156Z,0.96
2018-09-14T05:28:44.617Z,0.32
2018-09-14T05:29:19.904Z,0.08
2018-09-14T05:29:55.517Z,0.24
2018-09-14T05:30:31.267Z,0.00
2018-09-14T05:31:06.977Z,0.00
2018-09-14T05:31:42.286Z,0.16
2018-09-14T05:32:17.765Z,1.04
2018-09-14T05:32:53.443Z,1.36
2018-09-14T05:33:28.759Z,2.08
2018-09-14T05:34:04.548Z,1.28
2018-09-14T05:34:40.079Z,0.88
2018-09-14T05:35:15.235Z,0.24
2018-09-14T05:35:50.549Z,0.48
2018-09-14T05:36:25.805Z,0.00
2018-09-14T05:37:01.014Z,0.00
2018-09-14T05:37:36.513Z,0.16
2018-09-14T05:38:12.145Z,0.72
2018-09-14T05:38:47.431Z,0.08
2018-09-14T05:39:22.865Z,0.00
2018-09-14T05:39:58.276Z,0.40
2018-09-14T05:40:33.242Z,1.52
2018-09-14T05:41:08.516Z,2.40
2018-09-14T05:41:43.706Z,2.00
2018-09-14T05:42:19.218Z,2.88
2018-09-14T05:42:54.915Z,2.16
2018-09-14T05:43:30.541Z,0.88
2018-09-14T05:44:05.707Z,1.76
2018-09-14T05:44:40.914Z,2.08
2018-09-14T05:45:16.258Z,2.24
2018-09-14T05:45:51.459Z,0.48
2018-09-14T05:46:26.800Z,0.00
2018-09-14T05:47:02.083Z,0.00
2018-09-14T05:47:37.663Z,0.00
2018-09-14T05:48:13.101Z,1.12
2018-09-14T05:48:48.173Z,0.32
2018-09-14T05:49:23.529Z,0.48
2018-09-14T05:49:58.999Z,0.24
2018-09-14T05:50:34.212Z,0.00
2018-09-14T05:51:09.664Z,0.00
2018-09-14T05:51:45.045Z,0.00
2018-09-14T05:52:20.218Z,0.88
2018-09-14T05:52:55.703Z,0.80
2018-09-14T05:53:31.144Z,1.28
2018-09-14T05:54:06.459Z,1.12
2018-09-14T05:54:41.779Z,0.40
2018-09-14T05:55:16.914Z,0.08
2018-09-14T05:55:52.307Z,0.64
2018-09-14T05:56:27.851Z,0.16
2018-09-14T05:57:03.257Z,0.24
2018-09-14T05:57:38.802Z,0.08
2018-09-14T05:58:14.328Z,0.00
2018-09-14T05:58:50.007Z,0.00
2018-09-14T05:59:25.207Z,0.72
2018-09-14T06:00:00.819Z,0.48
2018-09-14T06:00:36.310Z,0.00
2018-09-14T06:01:11.520Z,0.08
2018-09-14T06:01:46.730Z,0.00
2018-09-14T06:02:22.276Z,0.00
2018-09-14T06:02:57.599Z,0.00
2018-09-14T06:03:33.054Z,0.00
2018-09-14T06:04:08.405Z,0.00
2018-09-14T06:04:43.900Z,0.00
2018-09-14T06:05:19.017Z,0.00
2018-09-14T06:05:54.289Z,0.64
2018-09-14T06:06:29.725Z,0.80
2018-09-14T06:07:05.174Z,1.20
2018-09-14T06:07:40.545Z,0.80
2018-09-14T06:08:15.929Z,1.36
2018-09-14T06:08:51.271Z,2.24
2018-09-14T06:09:26.596Z,1.52
2018-09-14T06:10:01.987Z,3.60
2018-09-14T06:10:37.223Z,2.56
2018-09-14T06:11:12.394Z,4.08
2018-09-14T06:11:47.844Z,4.08
2018-09-14T06:12:23.166Z,3.12
2018-09-14T06:12:58.401Z,4.16
2018-09-14T06:13:33.712Z,2.64
2018-09-14T06:14:09.696Z,2.96
2018-09-14T06:14:45.237Z,0.64
2018-09-14T06:15:20.688Z,3.28
2018-09-14T06:15:55.906Z,2.32
2018-09-14T06:16:31.211Z,0.00
2018-09-14T06:17:06.618Z,0.00
2018-09-14T06:17:42.023Z,1.52
2018-09-14T06:18:17.333Z,2.32
2018-09-14T06:18:52.779Z,1.76
2018-09-14T06:19:28.567Z,2.40
2018-09-14T06:20:03.812Z,2.24
2018-09-14T06:20:39.189Z,2.08
2018-09-14T06:21:14.688Z,2.72
2018-09-14T06:21:50.056Z,2.72
2018-09-14T06:22:25.163Z,2.80
2018-09-14T06:23:00.532Z,2.48
2018-09-14T06:23:35.743Z,1.52
2018-09-14T06:24:10.854Z,2.24
2018-09-14T06:24:46.438Z,2.32
2018-09-14T06:25:22.061Z,0.64
2018-09-14T06:25:57.571Z,0.00
2018-09-14T06:26:32.939Z,0.72
2018-09-14T06:27:08.460Z,1.60
2018-09-14T06:27:43.679Z,0.32
2018-09-14T06:28:19.177Z,0.48
2018-09-14T06:28:54.554Z,1.04
2018-09-14T06:29:29.775Z,0.56
2018-09-14T06:30:05.415Z,0.08
2018-09-14T06:30:41.085Z,0.00
2018-09-14T06:31:16.574Z,0.08
2018-09-14T06:31:51.885Z,0.08
2018-09-14T06:32:27.152Z,0.00
2018-09-14T06:33:02.769Z,0.32
2018-09-14T06:33:38.145Z,0.00
2018-09-14T06:34:13.543Z,1.04
2018-09-14T06:34:48.907Z,0.48
2018-09-14T06:35:24.171Z,0.56
2018-09-14T06:35:59.491Z,0.16
2018-09-14T06:36:34.748Z,0.00
2018-09-14T06:37:09.958Z,0.24
2018-09-14T06:37:45.506Z,1.44
2018-09-14T06:38:20.759Z,0.48
2018-09-14T06:38:55.850Z,0.00
2018-09-14T06:39:31.028Z,0.16
2018-09-14T06:40:06.393Z,0.64
2018-09-14T06:40:41.697Z,1.76
2018-09-14T06:41:17.152Z,0.72
2018-09-14T06:41:52.588Z,0.80
2018-09-14T06:42:28.337Z,0.24
2018-09-14T06:43:03.722Z,0.88
2018-09-14T06:43:39.020Z,2.00
2018-09-14T06:44:14.590Z,1.28
2018-09-14T06:44:49.929Z,3.68
2018-09-14T06:45:25.246Z,1.76
2018-09-14T06:46:00.808Z,0.96
2018-09-14T06:46:36.116Z,1.12
2018-09-14T06:47:11.511Z,2.40
2018-09-14T06:47:47.051Z,0.88
2018-09-14T06:48:22.369Z,1.60
2018-09-14T06:48:57.863Z,4.00
2018-09-14T06:49:33.311Z,2.48
2018-09-14T06:50:08.599Z,4.00
2018-09-14T06:50:44.033Z,2.72
2018-09-14T06:51:19.478Z,3.12
2018-09-14T06:51:54.699Z,2.00
2018-09-14T06:52:30.448Z,4.16
2018-09-14T06:53:05.644Z,2.88
2018-09-14T06:53:40.999Z,1.28
2018-09-14T06:54:16.644Z,1.92
2018-09-14T06:54:52.071Z,4.40
2018-09-14T06:55:27.349Z,3.60
2018-09-14T06:56:02.782Z,2.80
2018-09-14T06:56:38.434Z,4.48
2018-09-14T06:57:13.746Z,3.68
2018-09-14T06:57:49.185Z,3.04
2018-09-14T06:58:24.539Z,1.76
2018-09-14T06:58:59.994Z,1.44
2018-09-14T06:59:35.637Z,1.04
2018-09-14T07:00:11.076Z,2.40
2018-09-14T07:00:46.613Z,1.76
2018-09-14T07:01:22.036Z,1.84
2018-09-14T07:01:57.394Z,1.44
2018-09-14T07:02:32.732Z,1.28
2018-09-14T07:03:08.319Z,3.20
2018-09-14T07:03:43.940Z,3.28
2018-09-14T07:04:19.158Z,0.64
2018-09-14T07:04:54.583Z,2.48
2018-09-14T07:05:29.996Z,2.56
2018-09-14T07:06:05.632Z,0.40
2018-09-14T07:06:41.026Z,1.36
2018-09-14T07:07:16.617Z,0.00
2018-09-14T07:07:52.238Z,2.72
2018-09-14T07:08:27.683Z,0.00
2018-09-14T07:09:02.998Z,3.60
2018-09-14T07:09:38.219Z,1.52
2018-09-14T07:10:13.622Z,1.68
2018-09-14T07:10:49.040Z,3.68
2018-09-14T07:11:24.385Z,1.76
2018-09-14T07:11:59.686Z,6.40
2018-09-14T07:12:35.045Z,7.20
2018-09-14T07:13:10.581Z,8.08
2018-09-14T07:13:45.802Z,8.56
2018-09-14T07:14:21.225Z,7.12
2018-09-14T07:14:56.579Z,1.92
2018-09-14T07:15:31.873Z,5.84
2018-09-14T07:16:07.283Z,2.96
2018-09-14T07:16:42.891Z,6.40
2018-09-14T07:17:18.233Z,3.28
2018-09-14T07:17:53.607Z,3.84
2018-09-14T07:18:29.057Z,4.24
2018-09-14T07:19:04.555Z,6.08
2018-09-14T07:19:40.283Z,8.24
2018-09-14T07:20:15.531Z,6.40
2018-09-14T07:20:51.213Z,5.28
2018-09-14T07:21:26.945Z,5.68
2018-09-14T07:22:02.327Z,4.32
2018-09-14T07:22:37.622Z,1.76
2018-09-14T07:23:13.180Z,3.76
2018-09-14T07:23:48.707Z,4.40
2018-09-14T07:24:24.133Z,2.96
2018-09-14T07:24:59.721Z,1.60
2018-09-14T07:25:34.927Z,2.88
2018-09-14T07:26:10.023Z,1.04
2018-09-14T07:26:45.389Z,3.92
2018-09-14T07:27:20.816Z,5.12
2018-09-14T07:27:56.011Z,2.48
2018-09-14T07:28:31.356Z,3.20
2018-09-14T07:29:06.706Z,4.16
2018-09-14T07:29:41.922Z,3.84
2018-09-14T07:30:17.394Z,4.08
2018-09-14T07:30:52.831Z,5.36
2018-09-14T07:31:28.277Z,5.28
2018-09-14T07:32:03.819Z,4.40
2018-09-14T07:32:39.101Z,4.16
2018-09-14T07:33:14.844Z,2.32
2018-09-14T07:33:50.281Z,1.92
2018-09-14T07:34:25.424Z,4.24
2018-09-14T07:35:00.711Z,1.12
2018-09-14T07:35:36.437Z,2.96
2018-09-14T07:36:11.538Z,1.12
2018-09-14T07:36:46.864Z,2.08
2018-09-14T07:37:22.424Z,6.24
2018-09-14T07:37:57.866Z,7.04
2018-09-14T07:38:33.180Z,3.44
2018-09-14T07:39:08.562Z,2.96
2018-09-14T07:39:44.273Z,5.68
2018-09-14T07:40:19.904Z,3.68
2018-09-14T07:40:55.361Z,4.96
2018-09-14T07:41:30.816Z,3.36
2018-09-14T07:42:06.144Z,2.32
2018-09-14T07:42:41.375Z,1.76
2018-09-14T07:43:16.793Z,3.52
2018-09-14T07:43:52.215Z,1.52
2018-09-14T07:44:27.745Z,9.12
2018-09-14T07:45:03.477Z,4.08
2018-09-14T07:45:38.871Z,3.44
2018-09-14T07:46:14.112Z,1.84
2018-09-14T07:46:49.365Z,0.88
2018-09-14T07:47:24.584Z,0.48
2018-09-14T07:47:59.786Z,1.84
2018-09-14T07:48:35.125Z,1.60
2018-09-14T07:49:10.671Z,1.36
2018-09-14T07:49:45.832Z,0.40
2018-09-14T07:50:21.701Z,0.48
2018-09-14T07:50:57.343Z,1.84